| time (UTC) | temp F | wind direction | speed knots | gust knots | rain 1hr in | rain 24hr in | rain mn in | humidity % | barometer mb |
| 20260508115119 | 59 | 180 | 1.7 | 2.6 | 0.00 | 0.00 | 0.00 | 22 | 1026.4 |
| 20260508114119 | 58 | 53 | 0.9 | 2.6 | 0.00 | 0.00 | 0.00 | 24 | 1026.4 |
| 20260508113118 | 58 | 210 | 0.9 | 2.6 | 0.00 | 0.00 | 0.00 | 23 | 1026.4 |
| 20260508112119 | 57 | 34 | 3.5 | 6.1 | 0.00 | 0.00 | 0.00 | 24 | 1026.5 |
| 20260508111118 | 57 | 327 | 1.7 | 3.5 | 0.00 | 0.00 | 0.00 | 23 | 1026.5 |
| 20260508110118 | 57 | 353 | 1.7 | 1.7 | 0.00 | 0.00 | 0.00 | 23 | 1026.6 |
| 20260508105138 | 57 | 12 | 2.6 | 5.2 | 0.00 | 0.00 | 0.00 | 24 | 1026.5 |
| 20260508104118 | 57 | 348 | 2.6 | 6.1 | 0.00 | 0.00 | 0.00 | 25 | 1026.4 |
| 20260508103118 | 57 | 2 | 3.5 | 7.8 | 0.00 | 0.00 | 0.00 | 27 | 1026.5 |
| 20260508102119 | 57 | 26 | 2.6 | 5.2 | 0.00 | 0.00 | 0.00 | 26 | 1026.4 |
| 20260508101138 | 56 | 151 | 1.7 | 3.5 | 0.00 | 0.00 | 0.00 | 26 | 1026.4 |
| 20260508100118 | 56 | 39 | 3.5 | 5.2 | 0.00 | 0.00 | 0.00 | 27 | 1026.4 |
| 20260508095117 | 56 | 343 | 0.9 | 2.6 | 0.00 | 0.00 | 0.00 | 28 | 1026.3 |
| 20260508094118 | 56 | 16 | 1.7 | 3.5 | 0.00 | 0.00 | 0.00 | 28 | 1026.3 |
| 20260508093117 | 56 | 354 | 1.7 | 3.5 | 0.00 | 0.00 | 0.00 | 29 | 1026.3 |
| 20260508092118 | 56 | 338 | 2.6 | 5.2 | 0.00 | 0.00 | 0.00 | 29 | 1026.3 |
| 20260508091138 | 55 | 40 | 0.9 | 2.6 | 0.00 | 0.00 | 0.00 | 31 | 1026.3 |
| 20260508090119 | 55 | 5 | 2.6 | 4.3 | 0.00 | 0.00 | 0.00 | 28 | 1026.4 |
| 20260508085117 | 53 | 331 | 2.6 | 5.2 | 0.00 | 0.00 | 0.00 | 33 | 1026.2 |
| 20260508084119 | 52 | 6 | 2.6 | 5.2 | 0.00 | 0.00 | 0.00 | 34 | 1026.2 |
| 20260508083137 | 52 | 15 | 3.5 | 7.0 | 0.00 | 0.00 | 0.00 | 34 | 1026.0 |
| 20260508082119 | 52 | 8 | 1.7 | 5.2 | 0.00 | 0.00 | 0.00 | 34 | 1026.2 |
| 20260508081138 | 51 | 355 | 1.7 | 4.3 | 0.00 | 0.00 | 0.00 | 35 | 1026.0 |
| 20260508080138 | 51 | 22 | 6.1 | 9.6 | 0.00 | 0.00 | 0.00 | 36 | 1026.0 |
| 20260508075118 | 51 | 47 | 0.9 | 3.5 | 0.00 | 0.00 | 0.00 | 36 | 1025.9 |
| 20260508074119 | 51 | 39 | 1.7 | 4.3 | 0.00 | 0.00 | 0.00 | 37 | 1025.9 |
| 20260508073118 | 51 | 59 | 2.6 | 6.1 | 0.00 | 0.00 | 0.00 | 37 | 1025.8 |
| 20260508072118 | 50 | 15 | 2.6 | 3.5 | 0.00 | 0.00 | 0.00 | 38 | 1025.9 |
| 20260508071138 | 50 | 23 | 3.5 | 8.7 | 0.00 | 0.00 | 0.00 | 39 | 1025.8 |
| 20260508070139 | 50 | 29 | 2.6 | 5.2 | 0.00 | 0.00 | 0.00 | 42 | 1025.7 |
| 20260508065117 | 50 | 4 | 1.7 | 4.3 | 0.00 | 0.00 | 0.00 | 40 | 1025.6 |
| 20260508064118 | 49 | 6 | 2.6 | 7.8 | 0.00 | 0.00 | 0.00 | 44 | 1025.5 |
| 20260508063119 | 48 | 13 | 2.6 | 3.5 | 0.00 | 0.00 | 0.00 | 44 | 1025.4 |
| 20260508062119 | 48 | 343 | 3.5 | 7.0 | 0.00 | 0.00 | 0.00 | 44 | 1025.3 |
| 20260508061118 | 48 | 8 | 1.7 | 2.6 | 0.00 | 0.00 | 0.00 | 47 | 1025.3 |
| 20260508060118 | 47 | 345 | 1.7 | 3.5 | 0.00 | 0.00 | 0.00 | 47 | 1025.2 |
| 20260508055117 | 47 | 14 | 1.7 | 5.2 | 0.00 | 0.00 | 0.00 | 48 | 1025.2 |
| 20260508054138 | 47 | 21 | 1.7 | 3.5 | 0.00 | 0.00 | 0.00 | 49 | 1025.1 |
| 20260508053158 | 46 | 341 | 1.7 | 2.6 | 0.00 | 0.00 | 0.00 | 50 | 1025.1 |
| 20260508052119 | 46 | 345 | 1.7 | 4.3 | 0.00 | 0.00 | 0.00 | 51 | 1024.9 |
| 20260508051118 | 45 | 347 | 0.9 | 4.3 | 0.00 | 0.00 | 0.00 | 53 | 1024.9 |
| 20260508050117 | 45 | 11 | 3.5 | 6.1 | 0.00 | 0.00 | 0.00 | 52 | 1024.7 |
| 20260508045118 | 41 | 4 | 1.7 | 2.6 | 0.00 | 0.00 | 0.00 | 60 | 1024.1 |
| 20260508044119 | 40 | 45 | 0.9 | 1.7 | 0.00 | 0.00 | 0.00 | 60 | 1023.9 |
| 20260508043118 | 40 | 355 | 0.9 | 1.7 | 0.00 | 0.00 | 0.00 | 60 | 1023.9 |
| 20260508042118 | 40 | 24 | 1.7 | 3.5 | 0.00 | 0.00 | 0.00 | 60 | 1023.8 |
| 20260508041118 | 40 | 14 | 1.7 | 3.5 | 0.00 | 0.00 | 0.00 | 60 | 1023.8 |
| 20260508040118 | 39 | 0 | 1.7 | 2.6 | 0.00 | 0.00 | 0.00 | 61 | 1023.7 |
| 20260508035117 | 39 | 344 | 0.9 | 1.7 | 0.00 | 0.00 | 0.00 | 61 | 1023.5 |
| 20260508034118 | 39 | 358 | 0.9 | 1.7 | 0.00 | 0.00 | 0.00 | 61 | 1023.5 |
| 20260508033118 | 39 | 1 | 1.7 | 2.6 | 0.00 | 0.00 | 0.00 | 61 | 1023.5 |
| 20260508032119 | 40 | 333 | 1.7 | 3.5 | 0.00 | 0.00 | 0.00 | 60 | 1023.4 |
| 20260508031118 | 40 | 9 | 0.9 | 2.6 | 0.00 | 0.00 | 0.00 | 60 | 1023.3 |
| 20260508030119 | 40 | 353 | 1.7 | 2.6 | 0.00 | 0.00 | 0.00 | 60 | 1023.2 |
| 20260508025117 | 40 | 292 | 0.9 | 1.7 | 0.00 | 0.00 | 0.00 | 59 | 1023.0 |
| 20260508024118 | 40 | 4 | 1.7 | 3.5 | 0.00 | 0.00 | 0.00 | 59 | 1022.9 |
| 20260508023119 | 40 | 12 | 0.9 | 1.7 | 0.00 | 0.00 | 0.00 | 58 | 1022.7 |
| 20260508022120 | 40 | 342 | 1.7 | 3.5 | 0.00 | 0.00 | 0.00 | 58 | 1022.7 |
| 20260508021139 | 41 | 74 | 0.9 | 1.7 | 0.00 | 0.00 | 0.00 | 58 | 1022.6 |
| 20260508020118 | 41 | 0 | 2.6 | 5.2 | 0.00 | 0.00 | 0.00 | 57 | 1022.4 |
| 20260508015118 | 41 | 9 | 1.7 | 3.5 | 0.00 | 0.00 | 0.00 | 57 | 1022.4 |
| 20260508014117 | 41 | 340 | 0.9 | 3.5 | 0.00 | 0.00 | 0.00 | 56 | 1022.3 |
| 20260508013117 | 42 | 359 | 2.6 | 5.2 | 0.00 | 0.00 | 0.00 | 55 | 1022.1 |
| 20260508012139 | 42 | 343 | 1.7 | 2.6 | 0.00 | 0.00 | 0.00 | 55 | 1022.0 |
| 20260508011138 | 42 | 10 | 1.7 | 4.3 | 0.00 | 0.00 | 0.00 | 54 | 1022.0 |
| 20260508010118 | 42 | 21 | 3.5 | 5.2 | 0.00 | 0.00 | 0.00 | 54 | 1021.9 |
| 20260508005118 | 43 | 358 | 2.6 | 5.2 | 0.00 | 0.00 | 0.00 | 52 | 1021.2 |
| 20260508004119 | 43 | 326 | 1.7 | 5.2 | 0.00 | 0.00 | 0.00 | 51 | 1021.1 |
| 20260508003118 | 43 | 8 | 3.5 | 6.1 | 0.00 | 0.00 | 0.00 | 50 | 1021.0 |
| 20260508002119 | 44 | 1 | 2.6 | 6.1 | 0.00 | 0.00 | 0.00 | 50 | 1020.9 |
| 20260508001117 | 44 | 348 | 2.6 | 4.3 | 0.00 | 0.00 | 0.00 | 50 | 1020.8 |
| 20260508000118 | 44 | 356 | 2.6 | 3.5 | 0.00 | 0.00 | 0.00 | 51 | 1020.7 |
| 20260507235118 | 44 | 16 | 2.6 | 6.1 | 0.00 | 0.00 | 0.00 | 50 | 1020.5 |
| 20260507234118 | 44 | 329 | 2.6 | 4.3 | 0.00 | 0.00 | 0.00 | 49 | 1020.5 |
| 20260507233118 | 44 | 348 | 2.6 | 5.2 | 0.00 | 0.00 | 0.00 | 51 | 1020.3 |
| 20260507232118 | 44 | 354 | 1.7 | 3.5 | 0.00 | 0.00 | 0.00 | 50 | 1020.2 |
| 20260507231119 | 45 | 355 | 1.7 | 3.5 | 0.00 | 0.00 | 0.00 | 49 | 1020.1 |
| 20260507230138 | 45 | 345 | 1.7 | 3.5 | 0.00 | 0.00 | 0.00 | 48 | 1020.1 |
| 20260507225217 | 45 | 304 | 1.7 | 2.6 | 0.00 | 0.00 | 0.00 | 47 | 1020.0 |
| 20260507224119 | 45 | 339 | 1.7 | 2.6 | 0.00 | 0.00 | 0.00 | 47 | 1019.9 |
| 20260507223117 | 45 | 321 | 1.7 | 3.5 | 0.00 | 0.00 | 0.00 | 46 | 1019.9 |
| 20260507222117 | 45 | 336 | 1.7 | 2.6 | 0.00 | 0.00 | 0.00 | 45 | 1019.8 |
| 20260507221117 | 46 | 335 | 0.9 | 2.6 | 0.00 | 0.00 | 0.00 | 45 | 1019.7 |
| 20260507220139 | 46 | 344 | 0.9 | 2.6 | 0.00 | 0.00 | 0.00 | 43 | 1019.7 |
| 20260507215118 | 46 | 357 | 1.7 | 4.3 | 0.00 | 0.00 | 0.00 | 43 | 1019.7 |
| 20260507214118 | 46 | 339 | 0.9 | 1.7 | 0.00 | 0.00 | 0.00 | 43 | 1019.5 |
| 20260507213118 | 46 | 331 | 1.7 | 2.6 | 0.00 | 0.00 | 0.00 | 41 | 1019.4 |
| 20260507212119 | 46 | 345 | 1.7 | 2.6 | 0.00 | 0.00 | 0.00 | 42 | 1019.3 |
| 20260507211117 | 46 | 338 | 1.7 | 3.5 | 0.00 | 0.00 | 0.00 | 41 | 1019.1 |
| 20260507210118 | 46 | 340 | 1.7 | 3.5 | 0.00 | 0.00 | 0.00 | 43 | 1019.0 |
| 20260507205117 | 46 | 302 | 0.9 | 1.7 | 0.00 | 0.00 | 0.00 | 38 | 1018.1 |
| 20260507204118 | 45 | 322 | 0.9 | 2.6 | 0.00 | 0.00 | 0.00 | 43 | 1018.0 |
| 20260507203117 | 45 | 38 | 0.9 | 1.7 | 0.00 | 0.00 | 0.00 | 52 | 1018.0 |
| 20260507202138 | 45 | 37 | 0.9 | 0.9 | 0.00 | 0.00 | 0.00 | 52 | 1017.9 |
| 20260507201118 | 45 | 37 | 0.9 | 0.9 | 0.00 | 0.00 | 0.00 | 53 | 1017.8 |
| 20260507200117 | 47 | 207 | 0.9 | 1.7 | 0.00 | 0.00 | 0.00 | 51 | 1017.7 |
| 20260507195117 | 47 | 65 | 0.9 | 0.9 | 0.00 | 0.00 | 0.00 | 51 | 1017.6 |
| 20260507194119 | 47 | 22 | 0.0 | 0.9 | 0.00 | 0.00 | 0.00 | 49 | 1017.6 |
| 20260507193137 | 48 | 153 | 0.9 | 1.7 | 0.00 | 0.00 | 0.00 | 49 | 1017.5 |
| 20260507192118 | 48 | 169 | 0.9 | 1.7 | 0.00 | 0.00 | 0.00 | 45 | 1017.5 |
| 20260507191138 | 48 | 157 | 0.9 | 0.9 | 0.00 | 0.00 | 0.00 | 43 | 1017.4 |
| 20260507190139 | 49 | 78 | 0.9 | 1.7 | 0.00 | 0.00 | 0.00 | 43 | 1017.3 |
| 20260507185118 | 49 | 15 | 0.9 | 2.6 | 0.00 | 0.00 | 0.00 | 41 | 1017.3 |
| 20260507184119 | 49 | 40 | 1.7 | 3.5 | 0.00 | 0.00 | 0.00 | 43 | 1017.1 |
| 20260507183136 | 49 | 171 | 1.7 | 5.2 | 0.00 | 0.00 | 0.00 | 49 | 1017.0 |
| 20260507182118 | 49 | 185 | 1.7 | 3.5 | 0.00 | 0.00 | 0.00 | 45 | 1017.0 |
| 20260507181117 | 50 | 101 | 1.7 | 2.6 | 0.00 | 0.00 | 0.00 | 44 | 1017.0 |
| 20260507180119 | 50 | 143 | 1.7 | 3.5 | 0.00 | 0.00 | 0.00 | 46 | 1017.0 |
| 20260507175117 | 50 | 78 | 1.7 | 3.5 | 0.00 | 0.00 | 0.00 | 42 | 1017.0 |
| 20260507174118 | 50 | 205 | 2.6 | 4.3 | 0.00 | 0.00 | 0.00 | 41 | 1017.0 |
| 20260507173118 | 50 | 198 | 1.7 | 2.6 | 0.00 | 0.00 | 0.00 | 45 | 1017.0 |
| 20260507172118 | 49 | 186 | 2.6 | 5.2 | 0.00 | 0.00 | 0.00 | 48 | 1017.0 |
| 20260507171118 | 49 | 229 | 1.7 | 3.5 | 0.00 | 0.00 | 0.00 | 51 | 1016.8 |
| 20260507170118 | 49 | 204 | 3.5 | 6.1 | 0.00 | 0.00 | 0.00 | 50 | 1016.8 |
| 20260507165138 | 47 | 202 | 7.0 | 8.7 | 0.00 | 0.00 | 0.00 | 52 | 1016.5 |
| 20260507164158 | 48 | 175 | 1.7 | 4.3 | 0.00 | 0.00 | 0.00 | 50 | 1016.5 |
| 20260507163118 | 48 | 207 | 2.6 | 6.1 | 0.00 | 0.00 | 0.00 | 48 | 1016.4 |
| 20260507162118 | 48 | 182 | 2.6 | 5.2 | 0.00 | 0.00 | 0.00 | 51 | 1016.4 |
| 20260507161117 | 47 | 197 | 4.3 | 7.8 | 0.00 | 0.00 | 0.00 | 55 | 1016.4 |
| 20260507160118 | 48 | 202 | 7.0 | 9.6 | 0.00 | 0.00 | 0.00 | 54 | 1016.5 |
| 20260507155118 | 50 | 195 | 5.2 | 7.8 | 0.00 | 0.00 | 0.00 | 44 | 1016.3 |
| 20260507154138 | 49 | 204 | 5.2 | 7.8 | 0.00 | 0.00 | 0.00 | 45 | 1016.4 |
| 20260507153137 | 48 | 181 | 2.6 | 6.1 | 0.00 | 0.00 | 0.00 | 52 | 1016.4 |
| 20260507152138 | 50 | 191 | 3.5 | 5.2 | 0.00 | 0.00 | 0.00 | 43 | 1016.4 |
| 20260507151118 | 51 | 153 | 1.7 | 4.3 | 0.00 | 0.00 | 0.00 | 42 | 1016.3 |
| 20260507150117 | 50 | 189 | 2.6 | 5.2 | 0.00 | 0.00 | 0.00 | 42 | 1016.4 |
| 20260507145118 | 50 | 204 | 2.6 | 5.2 | 0.00 | 0.00 | 0.00 | 51 | 1016.4 |
| 20260507144140 | 49 | 193 | 5.2 | 7.0 | 0.00 | 0.00 | 0.00 | 51 | 1016.4 |
| 20260507143119 | 50 | 204 | 4.3 | 7.8 | 0.00 | 0.00 | 0.00 | 50 | 1016.3 |
| 20260507142118 | 49 | 207 | 4.3 | 6.1 | 0.00 | 0.00 | 0.00 | 48 | 1016.2 |
| 20260507141118 | 49 | 201 | 4.3 | 10.4 | 0.00 | 0.00 | 0.00 | 46 | 1016.2 |
| 20260507140119 | 52 | 199 | 7.8 | 9.6 | 0.00 | 0.00 | 0.00 | 36 | 1016.1 |
| 20260507135118 | 52 | 183 | 2.6 | 5.2 | 0.00 | 0.00 | 0.00 | 34 | 1016.0 |
| 20260507134119 | 53 | 183 | 4.3 | 8.7 | 0.00 | 0.00 | 0.00 | 31 | 1016.0 |
| 20260507133117 | 54 | 176 | 2.6 | 4.3 | 0.00 | 0.00 | 0.00 | 24 | 1016.0 |
| 20260507132118 | 54 | 162 | 1.7 | 3.5 | 0.00 | 0.00 | 0.00 | 28 | 1016.0 |
| 20260507131117 | 53 | 199 | 3.5 | 4.3 | 0.00 | 0.00 | 0.00 | 25 | 1016.1 |
| 20260507130117 | 54 | 191 | 4.3 | 6.1 | 0.00 | 0.00 | 0.00 | 31 | 1016.0 |
| 20260507125118 | 52 | 156 | 1.7 | 4.3 | 0.00 | 0.00 | 0.00 | 40 | 1016.1 |
| 20260507124118 | 52 | 198 | 4.3 | 7.0 | 0.00 | 0.00 | 0.00 | 37 | 1016.0 |
| 20260507123118 | 52 | 204 | 5.2 | 8.7 | 0.00 | 0.00 | 0.00 | 30 | 1016.1 |
| 20260507122159 | 53 | 203 | 1.7 | 4.3 | 0.00 | 0.00 | 0.00 | 25 | 1016.1 |
| 20260507121117 | 53 | 203 | 2.6 | 6.1 | 0.00 | 0.00 | 0.00 | 29 | 1016.0 |
| 20260507120119 | 52 | 186 | 3.5 | 6.1 | 0.00 | 0.00 | 0.00 | 35 | 1016.0 |